sensor_id;sensor_type;location;lat;lon;timestamp;P1;durP1;ratioP1;P2;durP2;ratioP2
27223;SDS011;14965;50.660;13.226;2024-03-22T00:00:48;57.45;;;27.83;;
27223;SDS011;14965;50.660;13.226;2024-03-22T00:03:15;49.42;;;27.10;;
27223;SDS011;14965;50.660;13.226;2024-03-22T00:05:41;50.58;;;27.73;;
27223;SDS011;14965;50.660;13.226;2024-03-22T00:08:07;56.40;;;27.95;;
27223;SDS011;14965;50.660;13.226;2024-03-22T00:10:33;59.15;;;28.60;;
27223;SDS011;14965;50.660;13.226;2024-03-22T00:12:59;54.55;;;28.35;;
27223;SDS011;14965;50.660;13.226;2024-03-22T00:15:25;57.72;;;28.75;;
27223;SDS011;14965;50.660;13.226;2024-03-22T00:17:50;54.03;;;27.98;;
27223;SDS011;14965;50.660;13.226;2024-03-22T00:20:18;54.55;;;27.88;;
27223;SDS011;14965;50.660;13.226;2024-03-22T00:22:44;56.15;;;26.85;;
27223;SDS011;14965;50.660;13.226;2024-03-22T00:25:09;56.08;;;27.77;;
27223;SDS011;14965;50.660;13.226;2024-03-22T00:27:35;48.20;;;27.23;;
27223;SDS011;14965;50.660;13.226;2024-03-22T00:30:01;42.95;;;24.30;;
27223;SDS011;14965;50.660;13.226;2024-03-22T00:32:27;41.30;;;23.85;;
27223;SDS011;14965;50.660;13.226;2024-03-22T00:34:53;40.55;;;21.63;;
27223;SDS011;14965;50.660;13.226;2024-03-22T00:37:21;43.70;;;21.63;;
27223;SDS011;14965;50.660;13.226;2024-03-22T00:39:46;37.15;;;20.92;;
27223;SDS011;14965;50.660;13.226;2024-03-22T00:42:12;30.52;;;17.65;;
27223;SDS011;14965;50.660;13.226;2024-03-22T00:44:38;33.65;;;17.83;;
27223;SDS011;14965;50.660;13.226;2024-03-22T00:47:04;34.75;;;19.23;;
27223;SDS011;14965;50.660;13.226;2024-03-22T00:49:30;36.00;;;18.95;;
27223;SDS011;14965;50.660;13.226;2024-03-22T00:51:56;34.35;;;19.08;;
27223;SDS011;14965;50.660;13.226;2024-03-22T00:54:23;28.75;;;18.23;;
27223;SDS011;14965;50.660;13.226;2024-03-22T00:56:49;34.20;;;17.67;;
27223;SDS011;14965;50.660;13.226;2024-03-22T00:59:15;28.35;;;17.13;;
27223;SDS011;14965;50.660;13.226;2024-03-22T01:01:41;32.63;;;17.65;;
27223;SDS011;14965;50.660;13.226;2024-03-22T01:04:07;27.50;;;16.35;;
27223;SDS011;14965;50.660;13.226;2024-03-22T01:06:33;31.25;;;17.10;;
27223;SDS011;14965;50.660;13.226;2024-03-22T01:08:59;31.05;;;17.63;;
27223;SDS011;14965;50.660;13.226;2024-03-22T01:11:26;28.48;;;16.55;;
27223;SDS011;14965;50.660;13.226;2024-03-22T01:13:52;33.35;;;17.15;;
27223;SDS011;14965;50.660;13.226;2024-03-22T01:16:17;28.80;;;16.17;;
27223;SDS011;14965;50.660;13.226;2024-03-22T01:18:43;31.17;;;16.58;;
27223;SDS011;14965;50.660;13.226;2024-03-22T01:21:09;28.40;;;16.70;;
27223;SDS011;14965;50.660;13.226;2024-03-22T01:23:35;29.70;;;16.30;;
27223;SDS011;14965;50.660;13.226;2024-03-22T01:26:01;30.92;;;17.08;;
27223;SDS011;14965;50.660;13.226;2024-03-22T01:28:28;27.17;;;16.25;;
27223;SDS011;14965;50.660;13.226;2024-03-22T01:30:54;32.10;;;16.83;;
27223;SDS011;14965;50.660;13.226;2024-03-22T01:33:20;25.63;;;15.10;;
27223;SDS011;14965;50.660;13.226;2024-03-22T01:35:46;29.38;;;15.82;;
27223;SDS011;14965;50.660;13.226;2024-03-22T01:38:12;27.98;;;14.98;;
27223;SDS011;14965;50.660;13.226;2024-03-22T01:40:38;23.73;;;13.95;;
27223;SDS011;14965;50.660;13.226;2024-03-22T01:43:03;22.13;;;13.93;;
27223;SDS011;14965;50.660;13.226;2024-03-22T01:45:31;25.02;;;14.13;;
27223;SDS011;14965;50.660;13.226;2024-03-22T01:47:58;20.20;;;13.20;;
27223;SDS011;14965;50.660;13.226;2024-03-22T01:50:25;24.48;;;13.85;;
27223;SDS011;14965;50.660;13.226;2024-03-22T01:52:52;25.10;;;13.80;;
27223;SDS011;14965;50.660;13.226;2024-03-22T01:55:18;28.60;;;14.88;;
27223;SDS011;14965;50.660;13.226;2024-03-22T01:57:45;23.00;;;13.20;;
27223;SDS011;14965;50.660;13.226;2024-03-22T02:00:11;21.73;;;12.88;;
27223;SDS011;14965;50.660;13.226;2024-03-22T02:02:40;20.55;;;12.60;;
27223;SDS011;14965;50.660;13.226;2024-03-22T02:05:11;20.42;;;12.38;;
27223;SDS011;14965;50.660;13.226;2024-03-22T02:07:38;22.92;;;11.50;;
27223;SDS011;14965;50.660;13.226;2024-03-22T02:10:04;16.67;;;10.73;;
27223;SDS011;14965;50.660;13.226;2024-03-22T02:12:31;22.70;;;11.02;;
27223;SDS011;14965;50.660;13.226;2024-03-22T02:14:57;19.75;;;12.02;;
27223;SDS011;14965;50.660;13.226;2024-03-22T02:17:23;19.77;;;10.70;;
27223;SDS011;14965;50.660;13.226;2024-03-22T02:19:50;20.77;;;11.32;;
27223;SDS011;14965;50.660;13.226;2024-03-22T02:22:16;17.67;;;11.23;;
27223;SDS011;14965;50.660;13.226;2024-03-22T02:24:43;20.95;;;10.80;;
27223;SDS011;14965;50.660;13.226;2024-03-22T02:27:09;19.98;;;10.63;;
27223;SDS011;14965;50.660;13.226;2024-03-22T02:29:35;16.27;;;10.43;;
27223;SDS011;14965;50.660;13.226;2024-03-22T02:32:01;16.45;;;10.63;;
27223;SDS011;14965;50.660;13.226;2024-03-22T02:34:27;19.30;;;10.77;;
27223;SDS011;14965;50.660;13.226;2024-03-22T02:36:53;17.90;;;11.27;;
27223;SDS011;14965;50.660;13.226;2024-03-22T02:39:19;19.98;;;10.77;;
27223;SDS011;14965;50.660;13.226;2024-03-22T02:41:46;18.98;;;10.88;;
27223;SDS011;14965;50.660;13.226;2024-03-22T02:44:12;23.23;;;11.07;;
27223;SDS011;14965;50.660;13.226;2024-03-22T02:46:37;18.02;;;10.82;;
27223;SDS011;14965;50.660;13.226;2024-03-22T02:49:03;18.80;;;11.02;;
27223;SDS011;14965;50.660;13.226;2024-03-22T02:51:29;17.95;;;11.13;;
27223;SDS011;14965;50.660;13.226;2024-03-22T02:53:55;17.80;;;10.43;;
27223;SDS011;14965;50.660;13.226;2024-03-22T02:56:21;17.85;;;10.45;;
27223;SDS011;14965;50.660;13.226;2024-03-22T02:58:49;18.95;;;10.65;;
27223;SDS011;14965;50.660;13.226;2024-03-22T03:01:15;17.80;;;10.75;;
27223;SDS011;14965;50.660;13.226;2024-03-22T03:03:41;16.65;;;11.15;;
27223;SDS011;14965;50.660;13.226;2024-03-22T03:06:07;18.75;;;10.57;;
27223;SDS011;14965;50.660;13.226;2024-03-22T03:08:33;18.17;;;10.77;;
27223;SDS011;14965;50.660;13.226;2024-03-22T03:10:59;16.25;;;10.35;;
27223;SDS011;14965;50.660;13.226;2024-03-22T03:13:25;21.92;;;11.25;;
27223;SDS011;14965;50.660;13.226;2024-03-22T03:15:52;18.35;;;10.90;;
27223;SDS011;14965;50.660;13.226;2024-03-22T03:18:18;18.33;;;10.60;;
27223;SDS011;14965;50.660;13.226;2024-03-22T03:20:44;20.17;;;11.25;;
27223;SDS011;14965;50.660;13.226;2024-03-22T03:23:10;16.08;;;10.23;;
27223;SDS011;14965;50.660;13.226;2024-03-22T03:25:35;20.25;;;11.15;;
27223;SDS011;14965;50.660;13.226;2024-03-22T03:28:01;17.65;;;9.80;;
27223;SDS011;14965;50.660;13.226;2024-03-22T03:30:28;18.75;;;11.07;;
27223;SDS011;14965;50.660;13.226;2024-03-22T03:32:55;18.05;;;10.63;;
27223;SDS011;14965;50.660;13.226;2024-03-22T03:35:21;18.67;;;11.40;;
27223;SDS011;14965;50.660;13.226;2024-03-22T03:37:46;18.85;;;11.00;;
27223;SDS011;14965;50.660;13.226;2024-03-22T03:40:12;21.58;;;11.27;;
27223;SDS011;14965;50.660;13.226;2024-03-22T03:42:38;19.77;;;10.55;;
27223;SDS011;14965;50.660;13.226;2024-03-22T03:45:04;18.00;;;10.85;;
27223;SDS011;14965;50.660;13.226;2024-03-22T03:47:31;16.63;;;11.05;;
27223;SDS011;14965;50.660;13.226;2024-03-22T03:49:58;22.80;;;11.57;;
27223;SDS011;14965;50.660;13.226;2024-03-22T03:52:24;20.05;;;11.45;;
27223;SDS011;14965;50.660;13.226;2024-03-22T03:54:50;20.52;;;11.60;;
27223;SDS011;14965;50.660;13.226;2024-03-22T03:57:16;18.75;;;11.25;;
27223;SDS011;14965;50.660;13.226;2024-03-22T03:59:42;17.52;;;10.18;;
27223;SDS011;14965;50.660;13.226;2024-03-22T04:02:08;15.88;;;10.50;;
27223;SDS011;14965;50.660;13.226;2024-03-22T04:04:34;18.55;;;10.75;;
27223;SDS011;14965;50.660;13.226;2024-03-22T04:07:01;18.23;;;10.02;;
27223;SDS011;14965;50.660;13.226;2024-03-22T04:09:27;17.00;;;10.00;;
27223;SDS011;14965;50.660;13.226;2024-03-22T04:11:53;15.18;;;9.20;;
27223;SDS011;14965;50.660;13.226;2024-03-22T04:14:18;16.75;;;9.63;;
27223;SDS011;14965;50.660;13.226;2024-03-22T04:16:44;16.02;;;9.73;;
27223;SDS011;14965;50.660;13.226;2024-03-22T04:19:10;15.73;;;9.32;;
27223;SDS011;14965;50.660;13.226;2024-03-22T04:21:36;16.95;;;9.40;;
27223;SDS011;14965;50.660;13.226;2024-03-22T04:24:04;16.52;;;9.45;;
27223;SDS011;14965;50.660;13.226;2024-03-22T04:26:30;16.20;;;8.98;;
27223;SDS011;14965;50.660;13.226;2024-03-22T04:28:56;17.38;;;9.35;;
27223;SDS011;14965;50.660;13.226;2024-03-22T04:31:22;14.95;;;8.77;;
27223;SDS011;14965;50.660;13.226;2024-03-22T04:33:48;14.48;;;9.18;;
27223;SDS011;14965;50.660;13.226;2024-03-22T04:36:14;16.50;;;9.30;;
27223;SDS011;14965;50.660;13.226;2024-03-22T04:38:40;15.63;;;8.15;;
27223;SDS011;14965;50.660;13.226;2024-03-22T04:41:08;16.67;;;8.30;;
27223;SDS011;14965;50.660;13.226;2024-03-22T04:43:34;12.57;;;7.65;;
27223;SDS011;14965;50.660;13.226;2024-03-22T04:46:00;13.27;;;8.32;;
27223;SDS011;14965;50.660;13.226;2024-03-22T04:48:25;13.52;;;7.82;;
27223;SDS011;14965;50.660;13.226;2024-03-22T04:50:52;14.35;;;7.63;;
27223;SDS011;14965;50.660;13.226;2024-03-22T04:53:18;15.57;;;7.78;;
27223;SDS011;14965;50.660;13.226;2024-03-22T04:55:45;10.52;;;6.80;;
27223;SDS011;14965;50.660;13.226;2024-03-22T04:58:14;11.38;;;6.80;;
27223;SDS011;14965;50.660;13.226;2024-03-22T05:00:41;10.85;;;6.68;;
27223;SDS011;14965;50.660;13.226;2024-03-22T05:03:07;10.60;;;6.38;;
27223;SDS011;14965;50.660;13.226;2024-03-22T05:05:34;11.68;;;6.43;;
27223;SDS011;14965;50.660;13.226;2024-03-22T05:08:00;11.40;;;6.32;;
27223;SDS011;14965;50.660;13.226;2024-03-22T05:10:26;9.85;;;5.65;;
27223;SDS011;14965;50.660;13.226;2024-03-22T05:12:52;11.98;;;6.55;;
27223;SDS011;14965;50.660;13.226;2024-03-22T05:15:19;11.32;;;6.22;;
27223;SDS011;14965;50.660;13.226;2024-03-22T05:17:45;11.48;;;5.80;;
27223;SDS011;14965;50.660;13.226;2024-03-22T05:20:11;13.07;;;6.50;;
27223;SDS011;14965;50.660;13.226;2024-03-22T05:22:37;11.88;;;6.65;;
27223;SDS011;14965;50.660;13.226;2024-03-22T05:25:03;11.68;;;6.40;;
27223;SDS011;14965;50.660;13.226;2024-03-22T05:27:30;10.43;;;6.00;;
27223;SDS011;14965;50.660;13.226;2024-03-22T05:29:56;14.20;;;6.18;;
27223;SDS011;14965;50.660;13.226;2024-03-22T05:32:24;12.07;;;6.28;;
27223;SDS011;14965;50.660;13.226;2024-03-22T05:34:50;17.10;;;6.88;;
27223;SDS011;14965;50.660;13.226;2024-03-22T05:37:16;12.68;;;6.75;;
27223;SDS011;14965;50.660;13.226;2024-03-22T05:39:42;12.10;;;6.93;;
27223;SDS011;14965;50.660;13.226;2024-03-22T05:42:07;12.10;;;6.72;;
27223;SDS011;14965;50.660;13.226;2024-03-22T05:44:34;15.07;;;7.90;;
27223;SDS011;14965;50.660;13.226;2024-03-22T05:47:00;16.25;;;7.32;;
27223;SDS011;14965;50.660;13.226;2024-03-22T05:49:27;14.00;;;7.95;;
27223;SDS011;14965;50.660;13.226;2024-03-22T05:51:53;19.45;;;8.30;;
27223;SDS011;14965;50.660;13.226;2024-03-22T05:54:19;18.27;;;8.80;;
27223;SDS011;14965;50.660;13.226;2024-03-22T05:56:45;15.77;;;8.13;;
27223;SDS011;14965;50.660;13.226;2024-03-22T05:59:11;18.58;;;8.75;;
27223;SDS011;14965;50.660;13.226;2024-03-22T06:01:36;16.70;;;8.57;;
27223;SDS011;14965;50.660;13.226;2024-03-22T06:04:02;18.02;;;9.73;;
27223;SDS011;14965;50.660;13.226;2024-03-22T06:06:30;15.50;;;8.65;;
27223;SDS011;14965;50.660;13.226;2024-03-22T06:08:56;15.98;;;9.13;;
27223;SDS011;14965;50.660;13.226;2024-03-22T06:11:22;17.90;;;9.20;;
27223;SDS011;14965;50.660;13.226;2024-03-22T06:13:48;16.00;;;8.60;;
27223;SDS011;14965;50.660;13.226;2024-03-22T06:16:14;19.90;;;9.68;;
27223;SDS011;14965;50.660;13.226;2024-03-22T06:18:40;21.38;;;9.88;;
27223;SDS011;14965;50.660;13.226;2024-03-22T06:21:06;18.65;;;9.77;;
27223;SDS011;14965;50.660;13.226;2024-03-22T06:23:33;19.55;;;10.30;;
27223;SDS011;14965;50.660;13.226;2024-03-22T06:25:59;18.10;;;9.85;;
27223;SDS011;14965;50.660;13.226;2024-03-22T06:28:26;18.75;;;10.60;;
27223;SDS011;14965;50.660;13.226;2024-03-22T06:30:53;19.80;;;10.55;;
27223;SDS011;14965;50.660;13.226;2024-03-22T06:33:19;23.20;;;10.65;;
27223;SDS011;14965;50.660;13.226;2024-03-22T06:35:45;21.40;;;10.68;;
27223;SDS011;14965;50.660;13.226;2024-03-22T06:38:11;24.55;;;11.52;;
27223;SDS011;14965;50.660;13.226;2024-03-22T06:40:39;19.13;;;10.25;;
27223;SDS011;14965;50.660;13.226;2024-03-22T06:43:05;19.98;;;10.38;;
27223;SDS011;14965;50.660;13.226;2024-03-22T06:45:31;22.38;;;12.10;;
27223;SDS011;14965;50.660;13.226;2024-03-22T06:47:56;21.73;;;11.68;;
27223;SDS011;14965;50.660;13.226;2024-03-22T06:50:22;22.98;;;11.82;;
27223;SDS011;14965;50.660;13.226;2024-03-22T06:52:48;28.45;;;12.38;;
27223;SDS011;14965;50.660;13.226;2024-03-22T06:55:14;22.75;;;11.70;;
27223;SDS011;14965;50.660;13.226;2024-03-22T06:57:41;21.10;;;11.43;;
27223;SDS011;14965;50.660;13.226;2024-03-22T07:00:07;25.40;;;12.85;;
27223;SDS011;14965;50.660;13.226;2024-03-22T07:02:34;31.10;;;13.93;;
27223;SDS011;14965;50.660;13.226;2024-03-22T07:05:00;23.40;;;11.45;;
27223;SDS011;14965;50.660;13.226;2024-03-22T07:07:26;25.17;;;11.90;;
27223;SDS011;14965;50.660;13.226;2024-03-22T07:09:52;23.35;;;11.88;;
27223;SDS011;14965;50.660;13.226;2024-03-22T07:12:18;22.55;;;11.63;;
27223;SDS011;14965;50.660;13.226;2024-03-22T07:14:45;22.05;;;11.75;;
27223;SDS011;14965;50.660;13.226;2024-03-22T07:17:11;22.02;;;11.07;;
27223;SDS011;14965;50.660;13.226;2024-03-22T07:19:37;23.20;;;11.70;;
27223;SDS011;14965;50.660;13.226;2024-03-22T07:22:03;23.08;;;11.48;;
27223;SDS011;14965;50.660;13.226;2024-03-22T07:24:29;21.45;;;11.10;;
27223;SDS011;14965;50.660;13.226;2024-03-22T07:26:55;21.17;;;11.30;;
27223;SDS011;14965;50.660;13.226;2024-03-22T07:29:21;20.77;;;10.60;;
27223;SDS011;14965;50.660;13.226;2024-03-22T07:31:48;19.27;;;9.98;;
27223;SDS011;14965;50.660;13.226;2024-03-22T07:34:14;19.95;;;10.60;;
27223;SDS011;14965;50.660;13.226;2024-03-22T07:36:39;21.38;;;11.50;;
27223;SDS011;14965;50.660;13.226;2024-03-22T07:39:06;20.13;;;10.65;;
27223;SDS011;14965;50.660;13.226;2024-03-22T07:41:32;19.08;;;10.05;;
27223;SDS011;14965;50.660;13.226;2024-03-22T07:43:58;21.92;;;11.10;;
27223;SDS011;14965;50.660;13.226;2024-03-22T07:46:23;23.02;;;11.18;;
27223;SDS011;14965;50.660;13.226;2024-03-22T07:48:51;19.63;;;10.10;;
27223;SDS011;14965;50.660;13.226;2024-03-22T07:51:17;20.60;;;10.38;;
27223;SDS011;14965;50.660;13.226;2024-03-22T07:53:42;20.30;;;9.57;;
27223;SDS011;14965;50.660;13.226;2024-03-22T07:56:08;20.02;;;9.75;;
27223;SDS011;14965;50.660;13.226;2024-03-22T07:58:34;16.90;;;8.90;;
27223;SDS011;14965;50.660;13.226;2024-03-22T08:01:00;16.98;;;8.65;;
27223;SDS011;14965;50.660;13.226;2024-03-22T08:03:26;16.98;;;9.13;;
27223;SDS011;14965;50.660;13.226;2024-03-22T08:05:53;18.60;;;9.07;;
27223;SDS011;14965;50.660;13.226;2024-03-22T08:08:19;16.98;;;8.57;;
27223;SDS011;14965;50.660;13.226;2024-03-22T08:10:45;15.98;;;8.80;;
27223;SDS011;14965;50.660;13.226;2024-03-22T08:13:11;16.08;;;8.25;;
27223;SDS011;14965;50.660;13.226;2024-03-22T08:15:37;15.07;;;8.77;;
27223;SDS011;14965;50.660;13.226;2024-03-22T08:18:03;15.57;;;8.52;;
27223;SDS011;14965;50.660;13.226;2024-03-22T08:20:30;14.48;;;7.95;;
27223;SDS011;14965;50.660;13.226;2024-03-22T08:22:57;16.10;;;7.88;;
27223;SDS011;14965;50.660;13.226;2024-03-22T08:25:23;13.60;;;7.80;;
27223;SDS011;14965;50.660;13.226;2024-03-22T08:27:49;17.27;;;8.40;;
27223;SDS011;14965;50.660;13.226;2024-03-22T08:30:15;17.27;;;8.45;;
27223;SDS011;14965;50.660;13.226;2024-03-22T08:32:40;16.10;;;8.63;;
27223;SDS011;14965;50.660;13.226;2024-03-22T08:35:06;14.60;;;8.00;;
27223;SDS011;14965;50.660;13.226;2024-03-22T08:37:33;12.80;;;7.45;;
27223;SDS011;14965;50.660;13.226;2024-03-22T08:40:00;15.45;;;7.68;;
27223;SDS011;14965;50.660;13.226;2024-03-22T08:42:26;14.20;;;7.60;;
27223;SDS011;14965;50.660;13.226;2024-03-22T08:44:52;13.68;;;6.68;;
27223;SDS011;14965;50.660;13.226;2024-03-22T08:47:18;13.85;;;7.18;;
27223;SDS011;14965;50.660;13.226;2024-03-22T08:49:43;12.57;;;6.50;;
27223;SDS011;14965;50.660;13.226;2024-03-22T08:52:09;10.68;;;6.03;;
27223;SDS011;14965;50.660;13.226;2024-03-22T08:54:35;11.93;;;5.90;;
27223;SDS011;14965;50.660;13.226;2024-03-22T08:57:02;11.18;;;5.57;;
27223;SDS011;14965;50.660;13.226;2024-03-22T08:59:28;9.43;;;5.22;;
27223;SDS011;14965;50.660;13.226;2024-03-22T09:01:54;12.18;;;4.78;;
27223;SDS011;14965;50.660;13.226;2024-03-22T09:04:20;8.13;;;4.70;;
27223;SDS011;14965;50.660;13.226;2024-03-22T09:06:46;8.65;;;5.00;;
27223;SDS011;14965;50.660;13.226;2024-03-22T09:09:12;9.48;;;4.90;;
27223;SDS011;14965;50.660;13.226;2024-03-22T09:11:38;8.48;;;4.40;;
27223;SDS011;14965;50.660;13.226;2024-03-22T09:14:05;10.07;;;4.38;;
27223;SDS011;14965;50.660;13.226;2024-03-22T09:16:31;7.10;;;4.18;;
27223;SDS011;14965;50.660;13.226;2024-03-22T09:18:58;10.85;;;5.10;;
27223;SDS011;14965;50.660;13.226;2024-03-22T09:21:24;7.80;;;4.72;;
27223;SDS011;14965;50.660;13.226;2024-03-22T09:23:49;11.73;;;4.15;;
27223;SDS011;14965;50.660;13.226;2024-03-22T09:26:15;6.50;;;4.22;;
27223;SDS011;14965;50.660;13.226;2024-03-22T09:28:41;7.38;;;4.00;;
27223;SDS011;14965;50.660;13.226;2024-03-22T09:31:08;7.03;;;3.90;;
27223;SDS011;14965;50.660;13.226;2024-03-22T09:33:34;9.48;;;3.95;;
27223;SDS011;14965;50.660;13.226;2024-03-22T09:36:01;6.85;;;3.85;;
27223;SDS011;14965;50.660;13.226;2024-03-22T09:38:27;9.45;;;4.25;;
27223;SDS011;14965;50.660;13.226;2024-03-22T09:40:53;6.05;;;3.67;;
27223;SDS011;14965;50.660;13.226;2024-03-22T09:43:19;7.75;;;3.60;;
27223;SDS011;14965;50.660;13.226;2024-03-22T09:45:46;7.78;;;3.88;;
27223;SDS011;14965;50.660;13.226;2024-03-22T09:48:14;6.97;;;3.42;;
27223;SDS011;14965;50.660;13.226;2024-03-22T09:50:40;4.75;;;3.15;;
27223;SDS011;14965;50.660;13.226;2024-03-22T09:53:06;4.50;;;2.90;;
27223;SDS011;14965;50.660;13.226;2024-03-22T09:55:35;7.82;;;3.10;;
27223;SDS011;14965;50.660;13.226;2024-03-22T09:58:02;5.63;;;3.55;;
27223;SDS011;14965;50.660;13.226;2024-03-22T10:00:28;6.28;;;3.72;;
27223;SDS011;14965;50.660;13.226;2024-03-22T10:02:55;8.27;;;3.72;;
27223;SDS011;14965;50.660;13.226;2024-03-22T10:05:23;8.02;;;4.32;;
27223;SDS011;14965;50.660;13.226;2024-03-22T10:07:49;7.00;;;3.63;;
27223;SDS011;14965;50.660;13.226;2024-03-22T10:10:16;7.07;;;3.40;;
27223;SDS011;14965;50.660;13.226;2024-03-22T10:12:42;6.45;;;3.95;;
27223;SDS011;14965;50.660;13.226;2024-03-22T10:15:08;7.40;;;3.53;;
27223;SDS011;14965;50.660;13.226;2024-03-22T10:17:35;7.15;;;3.95;;
27223;SDS011;14965;50.660;13.226;2024-03-22T10:20:01;7.57;;;3.80;;
27223;SDS011;14965;50.660;13.226;2024-03-22T10:22:28;7.22;;;3.63;;
27223;SDS011;14965;50.660;13.226;2024-03-22T10:24:54;6.97;;;3.83;;
27223;SDS011;14965;50.660;13.226;2024-03-22T10:27:20;7.28;;;4.18;;
27223;SDS011;14965;50.660;13.226;2024-03-22T10:29:46;7.07;;;3.97;;
27223;SDS011;14965;50.660;13.226;2024-03-22T10:32:12;9.10;;;4.10;;
27223;SDS011;14965;50.660;13.226;2024-03-22T10:34:38;7.18;;;4.00;;
27223;SDS011;14965;50.660;13.226;2024-03-22T10:37:05;7.95;;;4.55;;
27223;SDS011;14965;50.660;13.226;2024-03-22T10:39:36;9.57;;;4.70;;
27223;SDS011;14965;50.660;13.226;2024-03-22T10:42:05;9.77;;;4.78;;
27223;SDS011;14965;50.660;13.226;2024-03-22T10:44:31;11.45;;;4.95;;
27223;SDS011;14965;50.660;13.226;2024-03-22T10:46:57;11.93;;;4.90;;
27223;SDS011;14965;50.660;13.226;2024-03-22T10:49:30;7.72;;;4.60;;
27223;SDS011;14965;50.660;13.226;2024-03-22T10:52:02;7.15;;;4.13;;
27223;SDS011;14965;50.660;13.226;2024-03-22T10:54:34;8.05;;;4.13;;
27223;SDS011;14965;50.660;13.226;2024-03-22T10:57:05;7.20;;;3.80;;
27223;SDS011;14965;50.660;13.226;2024-03-22T10:59:36;6.88;;;4.20;;
27223;SDS011;14965;50.660;13.226;2024-03-22T11:02:02;6.10;;;3.40;;
27223;SDS011;14965;50.660;13.226;2024-03-22T11:04:29;7.53;;;3.67;;
27223;SDS011;14965;50.660;13.226;2024-03-22T11:06:56;8.02;;;3.85;;
27223;SDS011;14965;50.660;13.226;2024-03-22T11:09:23;7.55;;;4.10;;
27223;SDS011;14965;50.660;13.226;2024-03-22T11:11:52;7.63;;;3.90;;
27223;SDS011;14965;50.660;13.226;2024-03-22T11:14:20;8.18;;;4.00;;
27223;SDS011;14965;50.660;13.226;2024-03-22T11:16:46;9.25;;;4.38;;
27223;SDS011;14965;50.660;13.226;2024-03-22T11:19:12;6.43;;;3.83;;
27223;SDS011;14965;50.660;13.226;2024-03-22T11:21:38;8.48;;;4.57;;
27223;SDS011;14965;50.660;13.226;2024-03-22T11:24:04;6.97;;;3.88;;
27223;SDS011;14965;50.660;13.226;2024-03-22T11:26:30;7.30;;;3.92;;
27223;SDS011;14965;50.660;13.226;2024-03-22T11:28:58;7.50;;;3.70;;
27223;SDS011;14965;50.660;13.226;2024-03-22T11:31:24;7.90;;;3.63;;
27223;SDS011;14965;50.660;13.226;2024-03-22T11:33:50;7.43;;;3.72;;
27223;SDS011;14965;50.660;13.226;2024-03-22T11:36:17;6.45;;;3.63;;
27223;SDS011;14965;50.660;13.226;2024-03-22T11:38:43;6.22;;;3.42;;
27223;SDS011;14965;50.660;13.226;2024-03-22T11:41:09;6.03;;;3.72;;
27223;SDS011;14965;50.660;13.226;2024-03-22T11:43:36;6.28;;;3.50;;
27223;SDS011;14965;50.660;13.226;2024-03-22T11:46:05;7.25;;;3.63;;
27223;SDS011;14965;50.660;13.226;2024-03-22T11:48:31;5.97;;;3.38;;
27223;SDS011;14965;50.660;13.226;2024-03-22T11:50:56;9.00;;;3.33;;
27223;SDS011;14965;50.660;13.226;2024-03-22T11:53:22;8.15;;;3.30;;
27223;SDS011;14965;50.660;13.226;2024-03-22T11:55:49;4.55;;;3.00;;
27223;SDS011;14965;50.660;13.226;2024-03-22T11:58:14;5.95;;;3.60;;
27223;SDS011;14965;50.660;13.226;2024-03-22T12:00:43;6.88;;;3.58;;
27223;SDS011;14965;50.660;13.226;2024-03-22T12:03:10;6.63;;;3.10;;
27223;SDS011;14965;50.660;13.226;2024-03-22T12:05:37;5.95;;;3.20;;
27223;SDS011;14965;50.660;13.226;2024-03-22T12:08:03;3.83;;;2.70;;
27223;SDS011;14965;50.660;13.226;2024-03-22T12:10:30;5.40;;;2.88;;
27223;SDS011;14965;50.660;13.226;2024-03-22T12:12:56;6.65;;;3.20;;
27223;SDS011;14965;50.660;13.226;2024-03-22T12:15:21;5.30;;;3.17;;
27223;SDS011;14965;50.660;13.226;2024-03-22T12:17:47;5.82;;;2.90;;
27223;SDS011;14965;50.660;13.226;2024-03-22T12:20:14;6.15;;;2.80;;
27223;SDS011;14965;50.660;13.226;2024-03-22T12:22:41;6.28;;;3.20;;
27223;SDS011;14965;50.660;13.226;2024-03-22T12:25:07;4.93;;;2.92;;
27223;SDS011;14965;50.660;13.226;2024-03-22T12:27:33;6.55;;;3.00;;
27223;SDS011;14965;50.660;13.226;2024-03-22T12:29:59;6.20;;;3.13;;
27223;SDS011;14965;50.660;13.226;2024-03-22T12:32:25;4.82;;;3.17;;
27223;SDS011;14965;50.660;13.226;2024-03-22T12:34:51;5.75;;;3.40;;
27223;SDS011;14965;50.660;13.226;2024-03-22T12:37:18;5.53;;;3.63;;
27223;SDS011;14965;50.660;13.226;2024-03-22T12:39:44;5.95;;;3.50;;
27223;SDS011;14965;50.660;13.226;2024-03-22T12:42:10;6.50;;;3.58;;
27223;SDS011;14965;50.660;13.226;2024-03-22T12:44:36;8.43;;;3.50;;
27223;SDS011;14965;50.660;13.226;2024-03-22T12:47:02;6.28;;;3.60;;
27223;SDS011;14965;50.660;13.226;2024-03-22T12:49:28;7.78;;;3.88;;
27223;SDS011;14965;50.660;13.226;2024-03-22T12:51:53;6.80;;;3.80;;
27223;SDS011;14965;50.660;13.226;2024-03-22T12:54:22;7.35;;;4.10;;
27223;SDS011;14965;50.660;13.226;2024-03-22T12:56:48;6.75;;;4.20;;
27223;SDS011;14965;50.660;13.226;2024-03-22T12:59:14;8.48;;;4.57;;
27223;SDS011;14965;50.660;13.226;2024-03-22T13:01:39;6.82;;;3.75;;
27223;SDS011;14965;50.660;13.226;2024-03-22T13:04:05;7.40;;;3.47;;
27223;SDS011;14965;50.660;13.226;2024-03-22T13:06:31;9.02;;;3.85;;
27223;SDS011;14965;50.660;13.226;2024-03-22T13:08:57;6.10;;;3.30;;
27223;SDS011;14965;50.660;13.226;2024-03-22T13:11:24;5.57;;;3.53;;
27223;SDS011;14965;50.660;13.226;2024-03-22T13:13:50;6.63;;;3.70;;
27223;SDS011;14965;50.660;13.226;2024-03-22T13:16:17;7.88;;;3.90;;
27223;SDS011;14965;50.660;13.226;2024-03-22T13:18:43;8.20;;;3.80;;
27223;SDS011;14965;50.660;13.226;2024-03-22T13:21:09;9.20;;;4.80;;
27223;SDS011;14965;50.660;13.226;2024-03-22T13:23:35;8.10;;;4.68;;
27223;SDS011;14965;50.660;13.226;2024-03-22T13:26:04;11.40;;;4.78;;
27223;SDS011;14965;50.660;13.226;2024-03-22T13:28:32;8.88;;;4.63;;
27223;SDS011;14965;50.660;13.226;2024-03-22T13:31:01;7.60;;;4.57;;
27223;SDS011;14965;50.660;13.226;2024-03-22T13:33:28;8.50;;;4.65;;
27223;SDS011;14965;50.660;13.226;2024-03-22T13:35:54;7.72;;;4.68;;
27223;SDS011;14965;50.660;13.226;2024-03-22T13:38:20;13.23;;;5.00;;
27223;SDS011;14965;50.660;13.226;2024-03-22T13:40:52;9.18;;;4.38;;
27223;SDS011;14965;50.660;13.226;2024-03-22T13:43:18;8.65;;;4.50;;
27223;SDS011;14965;50.660;13.226;2024-03-22T13:45:46;7.85;;;4.85;;
27223;SDS011;14965;50.660;13.226;2024-03-22T13:48:16;9.68;;;5.28;;
27223;SDS011;14965;50.660;13.226;2024-03-22T13:50:42;6.90;;;4.15;;
27223;SDS011;14965;50.660;13.226;2024-03-22T13:53:08;8.75;;;5.00;;
27223;SDS011;14965;50.660;13.226;2024-03-22T13:55:34;9.55;;;5.20;;
27223;SDS011;14965;50.660;13.226;2024-03-22T13:58:00;8.88;;;4.90;;
27223;SDS011;14965;50.660;13.226;2024-03-22T14:00:26;9.43;;;4.95;;
27223;SDS011;14965;50.660;13.226;2024-03-22T14:02:53;8.75;;;5.28;;
27223;SDS011;14965;50.660;13.226;2024-03-22T14:05:19;11.85;;;5.57;;
27223;SDS011;14965;50.660;13.226;2024-03-22T14:07:45;11.73;;;5.65;;
27223;SDS011;14965;50.660;13.226;2024-03-22T14:10:11;8.95;;;5.18;;
27223;SDS011;14965;50.660;13.226;2024-03-22T14:12:37;8.60;;;4.30;;
27223;SDS011;14965;50.660;13.226;2024-03-22T14:15:03;9.48;;;5.93;;